sensor_id;sensor_type;location;lat;lon;timestamp;temperature;humidity
74877;HTU21D;64660;44.786;37.680;2022-12-26T00:00:24;9.20;82.36
74877;HTU21D;64660;44.786;37.680;2022-12-26T00:03:01;9.16;82.61
74877;HTU21D;64660;44.786;37.680;2022-12-26T00:05:33;9.14;82.86
74877;HTU21D;64660;44.786;37.680;2022-12-26T00:08:02;9.15;83.03
74877;HTU21D;64660;44.786;37.680;2022-12-26T00:10:30;9.11;83.16
74877;HTU21D;64660;44.786;37.680;2022-12-26T00:12:58;9.08;83.29
74877;HTU21D;64660;44.786;37.680;2022-12-26T00:15:27;9.05;83.44
74877;HTU21D;64660;44.786;37.680;2022-12-26T00:17:57;9.02;83.65
74877;HTU21D;64660;44.786;37.680;2022-12-26T00:20:24;8.94;83.88
74877;HTU21D;64660;44.786;37.680;2022-12-26T00:23:10;8.88;84.11
74877;HTU21D;64660;44.786;37.680;2022-12-26T00:25:38;8.82;84.32
74877;HTU21D;64660;44.786;37.680;2022-12-26T00:28:05;8.78;84.45
74877;HTU21D;64660;44.786;37.680;2022-12-26T00:30:32;8.71;84.64
74877;HTU21D;64660;44.786;37.680;2022-12-26T00:33:09;8.64;84.82
74877;HTU21D;64660;44.786;37.680;2022-12-26T00:35:38;8.60;84.96
74877;HTU21D;64660;44.786;37.680;2022-12-26T00:38:07;8.57;85.09
74877;HTU21D;64660;44.786;37.680;2022-12-26T00:40:35;8.57;85.35
74877;HTU21D;64660;44.786;37.680;2022-12-26T00:43:09;8.53;85.42
74877;HTU21D;64660;44.786;37.680;2022-12-26T00:45:36;8.53;85.48
74877;HTU21D;64660;44.786;37.680;2022-12-26T00:48:03;8.52;85.53
74877;HTU21D;64660;44.786;37.680;2022-12-26T00:50:40;8.49;85.61
74877;HTU21D;64660;44.786;37.680;2022-12-26T00:53:09;8.46;85.74
74877;HTU21D;64660;44.786;37.680;2022-12-26T00:55:36;8.43;85.83
74877;HTU21D;64660;44.786;37.680;2022-12-26T00:58:03;8.41;85.90
74877;HTU21D;64660;44.786;37.680;2022-12-26T01:00:49;8.38;85.93
74877;HTU21D;64660;44.786;37.680;2022-12-26T01:03:18;8.36;86.01
74877;HTU21D;64660;44.786;37.680;2022-12-26T01:05:46;8.30;86.12
74877;HTU21D;64660;44.786;37.680;2022-12-26T01:08:23;8.27;86.19
74877;HTU21D;64660;44.786;37.680;2022-12-26T01:11:10;8.23;86.23
74877;HTU21D;64660;44.786;37.680;2022-12-26T01:13:48;8.19;86.29
74877;HTU21D;64660;44.786;37.680;2022-12-26T01:16:16;8.17;86.31
74877;HTU21D;64660;44.786;37.680;2022-12-26T01:19:02;8.15;86.34
74877;HTU21D;64660;44.786;37.680;2022-12-26T01:21:38;8.17;86.29
74877;HTU21D;64660;44.786;37.680;2022-12-26T01:24:07;8.16;86.34
74877;HTU21D;64660;44.786;37.680;2022-12-26T01:26:35;8.16;86.36
74877;HTU21D;64660;44.786;37.680;2022-12-26T01:29:01;8.19;86.41
74877;HTU21D;64660;44.786;37.680;2022-12-26T01:31:37;8.17;86.41
74877;HTU21D;64660;44.786;37.680;2022-12-26T01:34:05;8.15;86.48
74877;HTU21D;64660;44.786;37.680;2022-12-26T01:36:31;8.12;86.58
74877;HTU21D;64660;44.786;37.680;2022-12-26T01:39:08;8.05;86.71
74877;HTU21D;64660;44.786;37.680;2022-12-26T01:41:36;8.01;86.88
74877;HTU21D;64660;44.786;37.680;2022-12-26T01:44:53;8.00;87.00
74877;HTU21D;64660;44.786;37.680;2022-12-26T01:46:57;7.99;86.99
74877;HTU21D;64660;44.786;37.680;2022-12-26T01:49:28;7.93;87.08
74877;HTU21D;64660;44.786;37.680;2022-12-26T01:52:20;7.90;87.15
74877;HTU21D;64660;44.786;37.680;2022-12-26T01:55:00;7.91;87.20
74877;HTU21D;64660;44.786;37.680;2022-12-26T02:00:41;7.92;87.22
74877;HTU21D;64660;44.786;37.680;2022-12-26T02:03:28;7.99;87.15
74877;HTU21D;64660;44.786;37.680;2022-12-26T02:06:17;8.02;87.08
74877;HTU21D;64660;44.786;37.680;2022-12-26T02:08:47;8.01;87.15
74877;HTU21D;64660;44.786;37.680;2022-12-26T02:11:23;8.03;87.22
74877;HTU21D;64660;44.786;37.680;2022-12-26T02:14:10;8.08;87.17
74877;HTU21D;64660;44.786;37.680;2022-12-26T02:16:38;8.12;87.13
74877;HTU21D;64660;44.786;37.680;2022-12-26T02:30:28;8.33;86.99
74877;HTU21D;64660;44.786;37.680;2022-12-26T02:33:16;8.32;86.94
74877;HTU21D;64660;44.786;37.680;2022-12-26T02:38:46;8.23;87.17
74877;HTU21D;64660;44.786;37.680;2022-12-26T02:44:12;8.21;87.33
74877;HTU21D;64660;44.786;37.680;2022-12-26T02:52:44;8.13;87.38
74877;HTU21D;64660;44.786;37.680;2022-12-26T02:55:33;8.08;87.47
74877;HTU21D;64660;44.786;37.680;2022-12-26T02:58:33;8.02;87.61
74877;HTU21D;64660;44.786;37.680;2022-12-26T03:01:26;8.01;87.65
74877;HTU21D;64660;44.786;37.680;2022-12-26T03:04:12;8.06;87.58
74877;HTU21D;64660;44.786;37.680;2022-12-26T03:07:19;8.14;87.38
74877;HTU21D;64660;44.786;37.680;2022-12-26T03:10:18;8.18;87.22
74877;HTU21D;64660;44.786;37.680;2022-12-26T03:13:10;8.19;87.17
74877;HTU21D;64660;44.786;37.680;2022-12-26T03:15:44;8.17;87.23
74877;HTU21D;64660;44.786;37.680;2022-12-26T03:18:43;8.12;87.36
74877;HTU21D;64660;44.786;37.680;2022-12-26T03:21:13;8.08;87.38
74877;HTU21D;64660;44.786;37.680;2022-12-26T03:23:50;8.08;87.48
74877;HTU21D;64660;44.786;37.680;2022-12-26T03:26:22;8.08;87.55
74877;HTU21D;64660;44.786;37.680;2022-12-26T03:29:11;8.14;87.54
74877;HTU21D;64660;44.786;37.680;2022-12-26T03:32:00;8.18;87.41
74877;HTU21D;64660;44.786;37.680;2022-12-26T03:34:30;8.16;87.42
74877;HTU21D;64660;44.786;37.680;2022-12-26T03:39:45;8.17;87.48
74877;HTU21D;64660;44.786;37.680;2022-12-26T03:42:50;8.21;87.38
74877;HTU21D;64660;44.786;37.680;2022-12-26T03:48:30;8.28;87.24
74877;HTU21D;64660;44.786;37.680;2022-12-26T03:54:32;8.34;87.09
74877;HTU21D;64660;44.786;37.680;2022-12-26T03:57:21;8.35;87.07
74877;HTU21D;64660;44.786;37.680;2022-12-26T04:00:11;8.36;87.11
74877;HTU21D;64660;44.786;37.680;2022-12-26T04:03:05;8.41;87.05
74877;HTU21D;64660;44.786;37.680;2022-12-26T04:05:52;8.46;86.97
74877;HTU21D;64660;44.786;37.680;2022-12-26T04:11:37;8.52;86.85
74877;HTU21D;64660;44.786;37.680;2022-12-26T04:17:41;8.52;86.84
74877;HTU21D;64660;44.786;37.680;2022-12-26T04:25:55;8.57;86.99
74877;HTU21D;64660;44.786;37.680;2022-12-26T04:28:46;8.57;86.98
74877;HTU21D;64660;44.786;37.680;2022-12-26T04:32:17;8.57;87.03
74877;HTU21D;64660;44.786;37.680;2022-12-26T04:34:44;8.57;87.00
74877;HTU21D;64660;44.786;37.680;2022-12-26T04:37:42;8.56;87.02
74877;HTU21D;64660;44.786;37.680;2022-12-26T04:40:30;8.56;87.03
74877;HTU21D;64660;44.786;37.680;2022-12-26T04:43:19;8.57;87.02
74877;HTU21D;64660;44.786;37.680;2022-12-26T04:46:05;8.58;86.98
74877;HTU21D;64660;44.786;37.680;2022-12-26T04:48:32;8.61;86.95
74877;HTU21D;64660;44.786;37.680;2022-12-26T04:51:29;8.64;86.77
74877;HTU21D;64660;44.786;37.680;2022-12-26T04:53:57;8.64;86.74
74877;HTU21D;64660;44.786;37.680;2022-12-26T04:56:27;8.70;86.70
74877;HTU21D;64660;44.786;37.680;2022-12-26T04:58:53;8.75;86.67
74877;HTU21D;64660;44.786;37.680;2022-12-26T05:01:31;8.80;86.45
74877;HTU21D;64660;44.786;37.680;2022-12-26T05:04:17;8.86;86.41
74877;HTU21D;64660;44.786;37.680;2022-12-26T05:07:13;8.88;86.33
74877;HTU21D;64660;44.786;37.680;2022-12-26T05:10:02;8.90;86.25
74877;HTU21D;64660;44.786;37.680;2022-12-26T05:12:30;8.92;86.27
74877;HTU21D;64660;44.786;37.680;2022-12-26T05:14:58;8.97;86.22
74877;HTU21D;64660;44.786;37.680;2022-12-26T05:17:25;8.97;86.26
74877;HTU21D;64660;44.786;37.680;2022-12-26T05:20:11;9.02;86.22
74877;HTU21D;64660;44.786;37.680;2022-12-26T05:22:58;9.02;86.20
74877;HTU21D;64660;44.786;37.680;2022-12-26T05:25:47;9.03;86.32
74877;HTU21D;64660;44.786;37.680;2022-12-26T05:28:32;9.04;86.39
74877;HTU21D;64660;44.786;37.680;2022-12-26T05:31:09;9.06;86.39
74877;HTU21D;64660;44.786;37.680;2022-12-26T05:33:38;9.06;86.45
74877;HTU21D;64660;44.786;37.680;2022-12-26T05:36:23;9.07;86.49
74877;HTU21D;64660;44.786;37.680;2022-12-26T05:38:50;9.09;86.48
74877;HTU21D;64660;44.786;37.680;2022-12-26T05:41:19;9.09;86.55
74877;HTU21D;64660;44.786;37.680;2022-12-26T05:43:47;9.09;86.61
74877;HTU21D;64660;44.786;37.680;2022-12-26T05:46:17;9.09;86.63
74877;HTU21D;64660;44.786;37.680;2022-12-26T05:48:46;9.08;86.67
74877;HTU21D;64660;44.786;37.680;2022-12-26T05:51:16;9.09;86.72
74877;HTU21D;64660;44.786;37.680;2022-12-26T05:53:43;9.11;86.62
74877;HTU21D;64660;44.786;37.680;2022-12-26T05:56:12;9.10;86.69
74877;HTU21D;64660;44.786;37.680;2022-12-26T05:58:41;9.10;86.80
74877;HTU21D;64660;44.786;37.680;2022-12-26T06:01:13;9.10;86.70
74877;HTU21D;64660;44.786;37.680;2022-12-26T06:03:40;9.10;86.76
74877;HTU21D;64660;44.786;37.680;2022-12-26T06:06:10;9.14;86.80
74877;HTU21D;64660;44.786;37.680;2022-12-26T06:08:38;9.16;86.71
74877;HTU21D;64660;44.786;37.680;2022-12-26T06:11:06;9.17;86.67
74877;HTU21D;64660;44.786;37.680;2022-12-26T06:13:37;9.14;86.74
74877;HTU21D;64660;44.786;37.680;2022-12-26T06:16:08;9.15;86.80
74877;HTU21D;64660;44.786;37.680;2022-12-26T06:18:37;9.16;86.80
74877;HTU21D;64660;44.786;37.680;2022-12-26T06:21:08;9.16;86.84
74877;HTU21D;64660;44.786;37.680;2022-12-26T06:23:37;9.18;86.85
74877;HTU21D;64660;44.786;37.680;2022-12-26T06:26:06;9.18;86.96
74877;HTU21D;64660;44.786;37.680;2022-12-26T06:28:52;9.18;86.99
74877;HTU21D;64660;44.786;37.680;2022-12-26T06:31:21;9.17;86.97
74877;HTU21D;64660;44.786;37.680;2022-12-26T06:33:58;9.20;86.95
74877;HTU21D;64660;44.786;37.680;2022-12-26T06:36:28;9.23;86.90
74877;HTU21D;64660;44.786;37.680;2022-12-26T06:38:57;9.26;86.93
74877;HTU21D;64660;44.786;37.680;2022-12-26T06:41:36;9.31;86.93
74877;HTU21D;64660;44.786;37.680;2022-12-26T06:44:06;9.33;86.93
74877;HTU21D;64660;44.786;37.680;2022-12-26T06:46:33;9.36;86.92
74877;HTU21D;64660;44.786;37.680;2022-12-26T06:49:00;9.40;86.88
74877;HTU21D;64660;44.786;37.680;2022-12-26T06:51:27;9.42;86.87
74877;HTU21D;64660;44.786;37.680;2022-12-26T06:53:55;9.41;86.94
74877;HTU21D;64660;44.786;37.680;2022-12-26T06:56:27;9.40;86.97
74877;HTU21D;64660;44.786;37.680;2022-12-26T06:58:57;9.37;87.09
74877;HTU21D;64660;44.786;37.680;2022-12-26T07:01:27;9.35;87.13
74877;HTU21D;64660;44.786;37.680;2022-12-26T07:03:59;9.35;87.12
74877;HTU21D;64660;44.786;37.680;2022-12-26T07:06:29;9.37;87.12
74877;HTU21D;64660;44.786;37.680;2022-12-26T07:08:58;9.40;87.03
74877;HTU21D;64660;44.786;37.680;2022-12-26T07:11:39;9.46;86.91
74877;HTU21D;64660;44.786;37.680;2022-12-26T07:14:07;9.51;86.91
74877;HTU21D;64660;44.786;37.680;2022-12-26T07:16:35;9.53;86.92
74877;HTU21D;64660;44.786;37.680;2022-12-26T07:19:02;9.60;86.88
74877;HTU21D;64660;44.786;37.680;2022-12-26T07:21:29;9.62;86.86
74877;HTU21D;64660;44.786;37.680;2022-12-26T07:23:58;9.63;86.85
74877;HTU21D;64660;44.786;37.680;2022-12-26T07:26:26;9.63;86.86
74877;HTU21D;64660;44.786;37.680;2022-12-26T07:28:57;9.61;86.86
74877;HTU21D;64660;44.786;37.680;2022-12-26T07:31:26;9.65;86.73
74877;HTU21D;64660;44.786;37.680;2022-12-26T07:34:01;9.70;86.64
74877;HTU21D;64660;44.786;37.680;2022-12-26T07:36:30;9.75;86.46
74877;HTU21D;64660;44.786;37.680;2022-12-26T07:38:58;9.79;86.38
74877;HTU21D;64660;44.786;37.680;2022-12-26T07:41:27;9.82;86.35
74877;HTU21D;64660;44.786;37.680;2022-12-26T07:44:21;9.86;86.22
74877;HTU21D;64660;44.786;37.680;2022-12-26T07:46:59;9.85;86.12
74877;HTU21D;64660;44.786;37.680;2022-12-26T07:49:28;9.83;86.14
74877;HTU21D;64660;44.786;37.680;2022-12-26T07:51:56;9.83;86.04
74877;HTU21D;64660;44.786;37.680;2022-12-26T07:54:31;9.84;85.99
74877;HTU21D;64660;44.786;37.680;2022-12-26T07:56:59;9.85;85.93
74877;HTU21D;64660;44.786;37.680;2022-12-26T07:59:28;9.84;85.92
74877;HTU21D;64660;44.786;37.680;2022-12-26T08:01:57;9.83;85.86
74877;HTU21D;64660;44.786;37.680;2022-12-26T08:04:26;9.83;85.99
74877;HTU21D;64660;44.786;37.680;2022-12-26T08:06:53;9.85;85.90
74877;HTU21D;64660;44.786;37.680;2022-12-26T08:09:29;9.86;85.83
74877;HTU21D;64660;44.786;37.680;2022-12-26T08:11:58;9.86;85.84
74877;HTU21D;64660;44.786;37.680;2022-12-26T08:14:26;9.90;85.79
74877;HTU21D;64660;44.786;37.680;2022-12-26T08:16:52;9.91;85.74
74877;HTU21D;64660;44.786;37.680;2022-12-26T08:19:30;9.89;85.72
74877;HTU21D;64660;44.786;37.680;2022-12-26T08:21:58;9.82;85.81
74877;HTU21D;64660;44.786;37.680;2022-12-26T08:24:27;9.77;85.87
74877;HTU21D;64660;44.786;37.680;2022-12-26T08:26:56;9.70;86.03
74877;HTU21D;64660;44.786;37.680;2022-12-26T08:29:33;9.65;86.21
74877;HTU21D;64660;44.786;37.680;2022-12-26T08:32:10;9.59;86.30
74877;HTU21D;64660;44.786;37.680;2022-12-26T08:34:37;9.52;86.38
74877;HTU21D;64660;44.786;37.680;2022-12-26T08:37:06;9.48;86.49
74877;HTU21D;64660;44.786;37.680;2022-12-26T08:39:35;9.47;86.58
74877;HTU21D;64660;44.786;37.680;2022-12-26T08:42:01;9.48;86.62
74877;HTU21D;64660;44.786;37.680;2022-12-26T08:44:30;9.48;86.62
74877;HTU21D;64660;44.786;37.680;2022-12-26T08:46:58;9.48;86.67
74877;HTU21D;64660;44.786;37.680;2022-12-26T08:49:36;9.51;86.64
74877;HTU21D;64660;44.786;37.680;2022-12-26T08:52:11;9.52;86.70
74877;HTU21D;64660;44.786;37.680;2022-12-26T08:54:40;9.57;86.67
74877;HTU21D;64660;44.786;37.680;2022-12-26T08:57:08;9.60;86.68
74877;HTU21D;64660;44.786;37.680;2022-12-26T08:59:36;9.60;86.79
74877;HTU21D;64660;44.786;37.680;2022-12-26T09:02:03;9.61;86.71
74877;HTU21D;64660;44.786;37.680;2022-12-26T09:04:30;9.62;86.78
74877;HTU21D;64660;44.786;37.680;2022-12-26T09:06:59;9.64;86.79
74877;HTU21D;64660;44.786;37.680;2022-12-26T09:09:27;9.65;86.83
74877;HTU21D;64660;44.786;37.680;2022-12-26T09:11:56;9.67;86.86
74877;HTU21D;64660;44.786;37.680;2022-12-26T09:14:25;9.69;86.84
74877;HTU21D;64660;44.786;37.680;2022-12-26T09:16:51;9.74;86.83
74877;HTU21D;64660;44.786;37.680;2022-12-26T09:19:20;9.76;86.85
74877;HTU21D;64660;44.786;37.680;2022-12-26T09:21:49;9.76;86.86
74877;HTU21D;64660;44.786;37.680;2022-12-26T09:24:40;9.69;87.07
74877;HTU21D;64660;44.786;37.680;2022-12-26T09:27:08;9.65;87.22
74877;HTU21D;64660;44.786;37.680;2022-12-26T09:29:36;9.64;87.22
74877;HTU21D;64660;44.786;37.680;2022-12-26T09:32:06;9.63;87.37
74877;HTU21D;64660;44.786;37.680;2022-12-26T09:34:36;9.62;87.42
74877;HTU21D;64660;44.786;37.680;2022-12-26T09:37:08;9.61;87.51
74877;HTU21D;64660;44.786;37.680;2022-12-26T09:39:40;9.62;87.51
74877;HTU21D;64660;44.786;37.680;2022-12-26T09:45:03;9.68;87.61
74877;HTU21D;64660;44.786;37.680;2022-12-26T09:50:37;9.61;87.80
74877;HTU21D;64660;44.786;37.680;2022-12-26T09:53:06;9.61;87.89
74877;HTU21D;64660;44.786;37.680;2022-12-26T09:58:43;9.65;87.89
74877;HTU21D;64660;44.786;37.680;2022-12-26T10:01:21;9.66;88.02
74877;HTU21D;64660;44.786;37.680;2022-12-26T10:03:51;9.65;88.06
74877;HTU21D;64660;44.786;37.680;2022-12-26T10:06:21;9.66;88.13
74877;HTU21D;64660;44.786;37.680;2022-12-26T10:14:02;9.70;88.26
74877;HTU21D;64660;44.786;37.680;2022-12-26T10:24:21;9.84;88.25
74877;HTU21D;64660;44.786;37.680;2022-12-26T10:26:51;9.89;88.27
74877;HTU21D;64660;44.786;37.680;2022-12-26T10:29:23;9.91;88.31
74877;HTU21D;64660;44.786;37.680;2022-12-26T10:31:59;9.91;88.38
74877;HTU21D;64660;44.786;37.680;2022-12-26T10:34:30;9.93;88.41
74877;HTU21D;64660;44.786;37.680;2022-12-26T10:37:03;10.01;88.38
74877;HTU21D;64660;44.786;37.680;2022-12-26T10:39:42;10.03;88.40
74877;HTU21D;64660;44.786;37.680;2022-12-26T10:45:21;9.91;88.50
74877;HTU21D;64660;44.786;37.680;2022-12-26T10:47:52;9.81;88.68
74877;HTU21D;64660;44.786;37.680;2022-12-26T10:50:23;9.78;88.79
74877;HTU21D;64660;44.786;37.680;2022-12-26T10:52:50;9.77;88.88
74877;HTU21D;64660;44.786;37.680;2022-12-26T10:55:18;9.76;88.82
74877;HTU21D;64660;44.786;37.680;2022-12-26T10:57:47;9.77;88.89
74877;HTU21D;64660;44.786;37.680;2022-12-26T11:00:17;9.77;88.92
74877;HTU21D;64660;44.786;37.680;2022-12-26T11:03:07;9.80;88.92
74877;HTU21D;64660;44.786;37.680;2022-12-26T11:05:42;9.81;88.95
74877;HTU21D;64660;44.786;37.680;2022-12-26T11:10:59;9.86;88.96
74877;HTU21D;64660;44.786;37.680;2022-12-26T11:13:31;9.84;88.98
74877;HTU21D;64660;44.786;37.680;2022-12-26T11:16:00;9.83;89.02
74877;HTU21D;64660;44.786;37.680;2022-12-26T11:23:47;9.93;89.04
74877;HTU21D;64660;44.786;37.680;2022-12-26T11:26:21;9.88;89.12
74877;HTU21D;64660;44.786;37.680;2022-12-26T11:31:43;9.80;89.34
74877;HTU21D;64660;44.786;37.680;2022-12-26T11:34:27;9.83;89.34
74877;HTU21D;64660;44.786;37.680;2022-12-26T11:37:00;9.85;89.39
74877;HTU21D;64660;44.786;37.680;2022-12-26T11:39:30;9.85;89.43
74877;HTU21D;64660;44.786;37.680;2022-12-26T11:42:07;9.81;89.45
74877;HTU21D;64660;44.786;37.680;2022-12-26T11:44:39;9.78;89.54
74877;HTU21D;64660;44.786;37.680;2022-12-26T11:47:11;9.76;89.54
74877;HTU21D;64660;44.786;37.680;2022-12-26T11:54:56;9.77;89.59
74877;HTU21D;64660;44.786;37.680;2022-12-26T11:57:29;9.79;89.54
74877;HTU21D;64660;44.786;37.680;2022-12-26T12:02:47;9.95;89.40
74877;HTU21D;64660;44.786;37.680;2022-12-26T12:06:00;10.05;89.31
74877;HTU21D;64660;44.786;37.680;2022-12-26T12:14:04;10.07;89.35
74877;HTU21D;64660;44.786;37.680;2022-12-26T12:17:12;10.09;89.37
74877;HTU21D;64660;44.786;37.680;2022-12-26T12:32:45;10.06;89.70
74877;HTU21D;64660;44.786;37.680;2022-12-26T12:43:30;9.80;89.93
74877;HTU21D;64660;44.786;37.680;2022-12-26T12:46:36;9.78;90.02
74877;HTU21D;64660;44.786;37.680;2022-12-26T12:51:27;9.74;90.18
74877;HTU21D;64660;44.786;37.680;2022-12-26T12:59:26;9.67;90.34
74877;HTU21D;64660;44.786;37.680;2022-12-26T13:01:56;9.69;90.20
74877;HTU21D;64660;44.786;37.680;2022-12-26T13:04:31;9.68;90.07
74877;HTU21D;64660;44.786;37.680;2022-12-26T13:09:37;9.69;89.92
74877;HTU21D;64660;44.786;37.680;2022-12-26T13:12:30;9.69;89.86
74877;HTU21D;64660;44.786;37.680;2022-12-26T13:14:59;9.65;89.76
74877;HTU21D;64660;44.786;37.680;2022-12-26T13:20:03;9.56;89.91
74877;HTU21D;64660;44.786;37.680;2022-12-26T13:22:38;9.50;89.94
74877;HTU21D;64660;44.786;37.680;2022-12-26T13:25:29;9.45;89.94
74877;HTU21D;64660;44.786;37.680;2022-12-26T13:27:59;9.38;89.89
74877;HTU21D;64660;44.786;37.680;2022-12-26T13:30:37;9.30;89.91
74877;HTU21D;64660;44.786;37.680;2022-12-26T13:33:09;9.21;90.01
74877;HTU21D;64660;44.786;37.680;2022-12-26T13:35:51;9.15;89.99
74877;HTU21D;64660;44.786;37.680;2022-12-26T13:41:53;9.03;89.98
74877;HTU21D;64660;44.786;37.680;2022-12-26T13:44:40;8.97;89.98
74877;HTU21D;64660;44.786;37.680;2022-12-26T13:52:46;8.93;90.02
74877;HTU21D;64660;44.786;37.680;2022-12-26T13:58:15;8.90;89.92
74877;HTU21D;64660;44.786;37.680;2022-12-26T14:00:50;8.87;89.88
74877;HTU21D;64660;44.786;37.680;2022-12-26T14:03:27;8.85;89.89
74877;HTU21D;64660;44.786;37.680;2022-12-26T14:11:35;8.76;89.89
74877;HTU21D;64660;44.786;37.680;2022-12-26T14:38:29;8.17;90.72
74877;HTU21D;64660;44.786;37.680;2022-12-26T14:43:34;8.18;90.67
74877;HTU21D;64660;44.786;37.680;2022-12-26T14:46:05;8.15;90.76
74877;HTU21D;64660;44.786;37.680;2022-12-26T14:48:38;8.15;90.77
74877;HTU21D;64660;44.786;37.680;2022-12-26T14:51:25;8.16;90.76
74877;HTU21D;64660;44.786;37.680;2022-12-26T14:56:40;8.05;90.89
74877;HTU21D;64660;44.786;37.680;2022-12-26T15:02:09;7.97;91.02
74877;HTU21D;64660;44.786;37.680;2022-12-26T15:04:50;7.90;91.11
74877;HTU21D;64660;44.786;37.680;2022-12-26T15:12:58;7.70;91.47
74877;HTU21D;64660;44.786;37.680;2022-12-26T15:16:00;7.69;91.53
74877;HTU21D;64660;44.786;37.680;2022-12-26T15:37:05;7.94;90.81
74877;HTU21D;64660;44.786;37.680;2022-12-26T15:44:42;7.93;90.69
74877;HTU21D;64660;44.786;37.680;2022-12-26T15:52:49;7.96;90.55
74877;HTU21D;64660;44.786;37.680;2022-12-26T15:55:24;7.96;90.53
74877;HTU21D;64660;44.786;37.680;2022-12-26T16:00:30;7.98;90.53
74877;HTU21D;64660;44.786;37.680;2022-12-26T16:11:18;8.00;90.56
74877;HTU21D;64660;44.786;37.680;2022-12-26T16:13:59;7.99;90.57
74877;HTU21D;64660;44.786;37.680;2022-12-26T16:16:32;7.99;90.57
74877;HTU21D;64660;44.786;37.680;2022-12-26T16:19:19;7.98;90.53
74877;HTU21D;64660;44.786;37.680;2022-12-26T16:21:51;7.97;90.48
74877;HTU21D;64660;44.786;37.680;2022-12-26T16:24:41;7.97;90.49
74877;HTU21D;64660;44.786;37.680;2022-12-26T16:27:11;7.98;90.49
74877;HTU21D;64660;44.786;37.680;2022-12-26T16:29:48;8.00;90.44
74877;HTU21D;64660;44.786;37.680;2022-12-26T16:32:18;8.02;90.44
74877;HTU21D;64660;44.786;37.680;2022-12-26T16:34:48;8.03;90.43
74877;HTU21D;64660;44.786;37.680;2022-12-26T16:37:20;8.06;90.45
74877;HTU21D;64660;44.786;37.680;2022-12-26T16:45:33;8.06;90.59
74877;HTU21D;64660;44.786;37.680;2022-12-26T16:48:12;8.06;90.65
74877;HTU21D;64660;44.786;37.680;2022-12-26T16:53:17;8.05;90.61
74877;HTU21D;64660;44.786;37.680;2022-12-26T16:56:36;8.07;90.62
74877;HTU21D;64660;44.786;37.680;2022-12-26T16:58:47;8.05;90.65
74877;HTU21D;64660;44.786;37.680;2022-12-26T17:01:29;8.05;90.66
74877;HTU21D;64660;44.786;37.680;2022-12-26T17:04:01;8.08;90.64
74877;HTU21D;64660;44.786;37.680;2022-12-26T17:06:31;8.08;90.74
74877;HTU21D;64660;44.786;37.680;2022-12-26T17:09:07;8.08;90.81
74877;HTU21D;64660;44.786;37.680;2022-12-26T17:11:38;8.09;90.82
74877;HTU21D;64660;44.786;37.680;2022-12-26T17:14:13;8.11;90.86
74877;HTU21D;64660;44.786;37.680;2022-12-26T17:16:46;8.12;90.86
74877;HTU21D;64660;44.786;37.680;2022-12-26T17:19:25;8.12;90.89
74877;HTU21D;64660;44.786;37.680;2022-12-26T17:24:50;8.13;90.73
74877;HTU21D;64660;44.786;37.680;2022-12-26T17:27:20;8.13;90.76
74877;HTU21D;64660;44.786;37.680;2022-12-26T17:29:51;8.12;90.71
74877;HTU21D;64660;44.786;37.680;2022-12-26T17:32:41;8.09;90.73
74877;HTU21D;64660;44.786;37.680;2022-12-26T17:35:12;8.09;90.74
74877;HTU21D;64660;44.786;37.680;2022-12-26T17:37:50;8.08;90.74
74877;HTU21D;64660;44.786;37.680;2022-12-26T17:40:20;8.08;90.75
74877;HTU21D;64660;44.786;37.680;2022-12-26T17:43:20;8.07;90.73
74877;HTU21D;64660;44.786;37.680;2022-12-26T17:45:48;8.04;90.74
74877;HTU21D;64660;44.786;37.680;2022-12-26T17:48:17;8.02;90.78
74877;HTU21D;64660;44.786;37.680;2022-12-26T17:50:47;8.01;90.86
74877;HTU21D;64660;44.786;37.680;2022-12-26T17:53:28;7.97;90.89
74877;HTU21D;64660;44.786;37.680;2022-12-26T17:56:09;7.93;90.91
74877;HTU21D;64660;44.786;37.680;2022-12-26T17:58:40;7.90;90.97
74877;HTU21D;64660;44.786;37.680;2022-12-26T18:01:09;7.87;91.04
74877;HTU21D;64660;44.786;37.680;2022-12-26T18:03:37;7.87;91.11
74877;HTU21D;64660;44.786;37.680;2022-12-26T18:06:08;7.83;91.19
74877;HTU21D;64660;44.786;37.680;2022-12-26T18:08:38;7.82;91.24
74877;HTU21D;64660;44.786;37.680;2022-12-26T18:11:17;7.82;91.24
74877;HTU21D;64660;44.786;37.680;2022-12-26T18:13:46;7.78;91.19
74877;HTU21D;64660;44.786;37.680;2022-12-26T18:16:18;7.79;91.21
74877;HTU21D;64660;44.786;37.680;2022-12-26T18:18:48;7.77;91.25
74877;HTU21D;64660;44.786;37.680;2022-12-26T18:21:18;7.75;91.28
74877;HTU21D;64660;44.786;37.680;2022-12-26T18:23:45;7.72;91.30
74877;HTU21D;64660;44.786;37.680;2022-12-26T18:26:27;7.70;91.31
74877;HTU21D;64660;44.786;37.680;2022-12-26T18:28:57;7.67;91.40
74877;HTU21D;64660;44.786;37.680;2022-12-26T18:31:27;7.65;91.45
74877;HTU21D;64660;44.786;37.680;2022-12-26T18:33:56;7.65;91.48
74877;HTU21D;64660;44.786;37.680;2022-12-26T18:36:33;7.65;91.47
74877;HTU21D;64660;44.786;37.680;2022-12-26T18:39:10;7.64;91.44
74877;HTU21D;64660;44.786;37.680;2022-12-26T18:41:49;7.62;91.45
74877;HTU21D;64660;44.786;37.680;2022-12-26T18:44:16;7.61;91.53
74877;HTU21D;64660;44.786;37.680;2022-12-26T18:46:46;7.62;91.54
74877;HTU21D;64660;44.786;37.680;2022-12-26T18:49:19;7.65;91.47
74877;HTU21D;64660;44.786;37.680;2022-12-26T18:51:47;7.64;91.46
74877;HTU21D;64660;44.786;37.680;2022-12-26T18:54:17;7.63;91.47
74877;HTU21D;64660;44.786;37.680;2022-12-26T18:56:43;7.62;91.49
74877;HTU21D;64660;44.786;37.680;2022-12-26T18:59:10;7.61;91.56
74877;HTU21D;64660;44.786;37.680;2022-12-26T19:01:38;7.60;91.60
74877;HTU21D;64660;44.786;37.680;2022-12-26T19:04:08;7.59;91.69
74877;HTU21D;64660;44.786;37.680;2022-12-26T19:06:36;7.59;91.76
74877;HTU21D;64660;44.786;37.680;2022-12-26T19:09:12;7.60;91.69
74877;HTU21D;64660;44.786;37.680;2022-12-26T19:11:40;7.59;91.73
74877;HTU21D;64660;44.786;37.680;2022-12-26T19:14:15;7.60;91.74
74877;HTU21D;64660;44.786;37.680;2022-12-26T19:16:51;7.60;91.70
74877;HTU21D;64660;44.786;37.680;2022-12-26T19:19:19;7.68;91.62
74877;HTU21D;64660;44.786;37.680;2022-12-26T19:21:48;7.73;91.53
74877;HTU21D;64660;44.786;37.680;2022-12-26T19:24:16;7.76;91.41
74877;HTU21D;64660;44.786;37.680;2022-12-26T19:26:51;7.79;91.38
74877;HTU21D;64660;44.786;37.680;2022-12-26T19:29:20;7.79;91.31
74877;HTU21D;64660;44.786;37.680;2022-12-26T19:31:49;7.82;91.33
74877;HTU21D;64660;44.786;37.680;2022-12-26T19:34:17;7.85;91.34
74877;HTU21D;64660;44.786;37.680;2022-12-26T19:36:47;7.86;91.35
74877;HTU21D;64660;44.786;37.680;2022-12-26T19:39:16;7.88;91.31
74877;HTU21D;64660;44.786;37.680;2022-12-26T19:41:43;7.90;91.30
74877;HTU21D;64660;44.786;37.680;2022-12-26T19:44:19;7.91;91.27
74877;HTU21D;64660;44.786;37.680;2022-12-26T19:46:48;7.94;91.27
74877;HTU21D;64660;44.786;37.680;2022-12-26T19:49:16;7.94;91.21
74877;HTU21D;64660;44.786;37.680;2022-12-26T19:51:47;7.93;91.26
74877;HTU21D;64660;44.786;37.680;2022-12-26T19:54:16;7.96;91.27
74877;HTU21D;64660;44.786;37.680;2022-12-26T19:56:42;7.94;91.22